createdAt,value
2023-05-02T00:00:02.788Z,76.784
2023-05-02T00:07:01.623Z,76.784
2023-05-02T00:14:02.031Z,77.507
2023-05-02T00:21:01.854Z,77.507
2023-05-02T00:28:01.805Z,78.248
2023-05-02T00:35:01.901Z,78.868
2023-05-02T00:42:01.651Z,78.868
2023-05-02T00:49:01.411Z,80.603
2023-05-02T00:56:02.086Z,80.603
2023-05-02T01:00:01.949Z,81.783
2023-05-02T01:07:02.177Z,81.783
2023-05-02T01:14:02.006Z,82.339
2023-05-02T01:21:01.874Z,82.339
2023-05-02T01:28:01.685Z,83.041
2023-05-02T01:35:02.631Z,83.041
2023-05-02T01:42:01.740Z,84.052
2023-05-02T01:49:01.715Z,84.052
2023-05-02T01:56:01.297Z,82.587
2023-05-02T02:00:02.237Z,82.587
2023-05-02T02:07:01.820Z,84.252
2023-05-02T02:14:01.374Z,84.252
2023-05-02T02:21:02.242Z,83.843
2023-05-02T02:28:01.749Z,83.843
2023-05-02T02:35:02.098Z,83.195
2023-05-02T02:42:01.411Z,83.195
2023-05-02T02:49:01.728Z,84.081
2023-05-02T02:56:01.636Z,84.5
2023-05-02T03:00:02.379Z,84.5
2023-05-02T03:07:01.658Z,84.5
2023-05-02T03:14:01.462Z,83.823
2023-05-02T03:21:01.734Z,83.823
2023-05-02T03:28:01.483Z,85.016
2023-05-02T03:35:01.737Z,85.024
2023-05-02T03:42:01.581Z,85.024
2023-05-02T03:49:02.219Z,83.523
2023-05-02T03:56:01.555Z,83.523
2023-05-02T04:00:02.358Z,82.686
2023-05-02T04:07:01.921Z,82.686
2023-05-02T04:14:01.615Z,82.708
2023-05-02T04:21:01.396Z,82.708
2023-05-02T04:28:01.454Z,81.812
2023-05-02T04:35:02.293Z,81.812
2023-05-02T04:42:01.498Z,82.718
2023-05-02T04:49:01.808Z,82.718
2023-05-02T04:56:02.283Z,83.045
2023-05-02T05:00:02.059Z,83.045
2023-05-02T05:07:02.152Z,83.016
2023-05-02T05:14:01.776Z,83.016
2023-05-02T05:21:01.831Z,86.336
2023-05-02T05:28:02.180Z,86.336
2023-05-02T05:35:01.978Z,87.995
2023-05-02T05:42:01.680Z,87.995
2023-05-02T05:49:02.237Z,90.177
2023-05-02T05:56:01.547Z,91.402
2023-05-02T06:00:02.494Z,91.402
2023-05-02T06:07:02.288Z,91.402
2023-05-02T06:14:01.542Z,88.113
2023-05-02T06:21:01.693Z,88.113
2023-05-02T06:28:01.352Z,87.188
2023-05-02T06:35:02.074Z,86.15
2023-05-02T06:42:02.115Z,86.15
2023-05-02T06:49:01.448Z,85.323
2023-05-02T06:56:01.982Z,85.323
2023-05-02T07:00:02.007Z,84.89
2023-05-02T07:07:01.404Z,84.89
2023-05-02T07:14:01.986Z,83.122
2023-05-02T07:21:02.259Z,83.122
2023-05-02T07:28:02.172Z,82.822
2023-05-02T07:35:01.564Z,82.822
2023-05-02T07:42:01.911Z,81.747
2023-05-02T07:49:01.469Z,81.747
2023-05-02T07:56:02.282Z,80.932
2023-05-02T08:00:02.302Z,80.932
2023-05-02T08:07:01.338Z,77.159
2023-05-02T08:14:01.765Z,77.159
2023-05-02T08:21:02.013Z,75.782
2023-05-02T08:28:01.709Z,75.782
2023-05-02T08:35:02.277Z,73.963
2023-05-02T08:42:01.968Z,73.963
2023-05-02T08:49:01.883Z,75.179
2023-05-02T08:56:01.727Z,73.514
2023-05-02T09:00:02.520Z,73.514
2023-05-02T09:07:01.398Z,73.514
2023-05-02T09:14:01.511Z,71.678
2023-05-02T09:21:02.263Z,71.678
2023-05-02T09:28:01.420Z,71.308
2023-05-02T09:35:01.768Z,70.854
2023-05-02T09:42:01.850Z,70.854
2023-05-02T09:49:01.556Z,68.985
2023-05-02T09:56:01.779Z,68.985
2023-05-02T10:00:02.444Z,68.416
2023-05-02T10:07:01.669Z,68.416
2023-05-02T10:14:01.611Z,66.841
2023-05-02T10:21:01.709Z,66.841
2023-05-02T10:28:02.231Z,66.605
2023-05-02T10:35:02.386Z,66.605
2023-05-02T10:42:01.333Z,61.988
2023-05-02T10:49:01.591Z,61.988
2023-05-02T10:56:01.834Z,61.092
2023-05-02T11:00:02.489Z,61.092
2023-05-02T11:07:02.108Z,61.248
2023-05-02T11:14:01.919Z,61.248
2023-05-02T11:21:01.921Z,60.337
2023-05-02T11:28:01.378Z,60.337
2023-05-02T11:35:02.800Z,60.436
2023-05-02T11:42:01.823Z,60.436
2023-05-02T11:49:02.372Z,61.134
2023-05-02T11:56:01.935Z,58.789
2023-05-02T12:00:02.621Z,58.789
2023-05-02T12:07:01.886Z,58.789
2023-05-02T12:14:02.225Z,57.98
2023-05-02T12:21:02.160Z,57.98
2023-05-02T12:28:02.041Z,55.635
2023-05-02T12:35:01.842Z,58.04
2023-05-02T12:42:01.760Z,58.04
2023-05-02T12:49:01.658Z,54.604
2023-05-02T12:56:01.836Z,54.604
2023-05-02T13:00:02.698Z,55.827
2023-05-02T13:07:01.546Z,55.827
2023-05-02T13:14:02.052Z,52.887
2023-05-02T13:21:01.920Z,52.887
2023-05-02T13:28:02.182Z,50.533
2023-05-02T13:35:01.591Z,50.533
2023-05-02T13:42:03.574Z,48.861
2023-05-02T13:49:01.414Z,48.861
2023-05-02T13:56:02.218Z,49.464
2023-05-02T14:00:02.014Z,49.464
2023-05-02T14:07:01.876Z,51.875
2023-05-02T14:14:01.656Z,51.875
2023-05-02T14:21:02.144Z,52.241
2023-05-02T14:28:01.901Z,52.241
2023-05-02T14:35:01.565Z,50.67
2023-05-02T14:42:01.660Z,50.67
2023-05-02T14:49:01.400Z,48.941
2023-05-02T14:56:01.850Z,50.607
2023-05-02T15:00:02.930Z,50.607
2023-05-02T15:07:01.972Z,50.607
2023-05-02T15:14:01.693Z,49.578
2023-05-02T15:21:01.671Z,49.578
2023-05-02T15:28:02.096Z,48.552
2023-05-02T15:35:02.360Z,50.63
2023-05-02T15:42:01.338Z,50.63
2023-05-02T15:49:01.852Z,46.605
2023-05-02T15:56:01.651Z,46.605
2023-05-02T16:00:02.686Z,48.107
2023-05-02T16:07:02.250Z,48.107
2023-05-02T16:14:02.034Z,48.554
2023-05-02T16:21:02.218Z,48.554
2023-05-02T16:28:01.519Z,48.102
2023-05-02T16:35:02.224Z,48.102
2023-05-02T16:42:01.330Z,47.937
2023-05-02T16:49:01.597Z,47.937
2023-05-02T16:56:01.975Z,48.966
2023-05-02T17:00:01.886Z,48.966
2023-05-02T17:07:02.138Z,46.642
2023-05-02T17:14:01.388Z,46.642
2023-05-02T17:21:03.814Z,47.477
2023-05-02T17:28:01.865Z,47.477
2023-05-02T17:35:01.763Z,48.357
2023-05-02T17:42:02.144Z,48.357
2023-05-02T17:49:01.857Z,48.48
2023-05-02T17:56:01.916Z,47.949
2023-05-02T18:00:02.953Z,47.949
2023-05-02T18:07:04.281Z,47.949
2023-05-02T18:14:01.933Z,48.392
2023-05-02T18:21:01.885Z,48.392
2023-05-02T18:28:01.342Z,48.384
2023-05-02T18:35:01.963Z,48.948
2023-05-02T18:42:01.688Z,48.948
2023-05-02T18:49:02.057Z,49.384
2023-05-02T18:56:01.752Z,49.384
2023-05-02T19:00:02.444Z,49.798
2023-05-02T19:07:02.077Z,49.798
2023-05-02T19:14:01.600Z,50.969
2023-05-02T19:21:02.179Z,50.969
2023-05-02T19:28:02.262Z,51.108
2023-05-02T19:35:02.530Z,51.108
2023-05-02T19:42:02.145Z,51.844
2023-05-02T19:49:01.640Z,51.844
2023-05-02T19:56:01.511Z,52.021
2023-05-02T20:00:02.307Z,52.021
2023-05-02T20:07:01.734Z,52.308
2023-05-02T20:14:01.606Z,52.308
2023-05-02T20:21:01.764Z,52.6
2023-05-02T20:28:01.638Z,52.6
2023-05-02T20:35:01.526Z,53.015
2023-05-02T20:42:01.848Z,53.015
2023-05-02T20:49:02.024Z,53.15
2023-05-02T20:56:01.980Z,53.509
2023-05-02T21:00:01.899Z,53.509
2023-05-02T21:07:01.823Z,53.509
2023-05-02T21:14:01.450Z,53.938
2023-05-02T21:21:01.486Z,53.938
2023-05-02T21:28:01.643Z,54.433
2023-05-02T21:35:01.855Z,54.974
2023-05-02T21:42:01.825Z,54.974
2023-05-02T21:49:01.424Z,55.774
2023-05-02T21:56:01.701Z,55.774
2023-05-02T22:00:02.411Z,56.237
2023-05-02T22:07:02.301Z,56.237
2023-05-02T22:14:01.690Z,56.543
2023-05-02T22:21:02.252Z,56.543
2023-05-02T22:28:02.295Z,57.042
2023-05-02T22:35:02.217Z,57.042
2023-05-02T22:42:01.924Z,57.285
2023-05-02T22:49:02.046Z,57.285
2023-05-02T22:56:01.509Z,58.066
2023-05-02T23:00:02.227Z,58.066
2023-05-02T23:07:01.532Z,58.325
2023-05-02T23:14:01.346Z,58.325
2023-05-02T23:21:01.867Z,58.682
2023-05-02T23:28:02.297Z,58.682
2023-05-02T23:35:01.894Z,59.175
2023-05-02T23:42:02.219Z,59.175
2023-05-02T23:49:01.416Z,59.541
2023-05-02T23:56:01.641Z,59.954
